Time;durP1;ratioP1;P1;durP2;ratioP2;P2;SDS_P1;SDS_P2;PMS_P1;PMS_P2;Temp;Humidity;BMP_temperature;BMP_pressure;BME280_temperature;BME280_humidity;BME280_pressure;Samples;Min_cycle;Max_cycle;Signal;HPM_P1;HPM_P2
2021/03/01 00:02:13;;;;;;;19.42;8.55;;;0.60;99.90;;;;;;5021503;28;20059;-71
2021/03/01 00:04:57;;;;;;;20.73;7.72;;;0.50;99.90;;;;;;5014494;28;20100;-72
2021/03/01 00:07:42;;;;;;;13.85;6.40;;;0.50;99.90;;;;;;5017010;28;20094;-72
2021/03/01 00:10:26;;;;;;;17.42;7.10;;;0.40;99.90;;;;;;5022133;28;20046;-72
2021/03/01 00:13:11;;;;;;;20.48;7.80;;;0.30;99.90;;;;;;5028669;28;20080;-71
2021/03/01 00:15:55;;;;;;;19.98;7.55;;;0.30;99.90;;;;;;5024945;28;20088;-71
2021/03/01 00:18:39;;;;;;;18.65;7.55;;;0.30;99.90;;;;;;5019064;28;20053;-72
2021/03/01 00:21:23;;;;;;;17.08;7.75;;;0.30;99.90;;;;;;5027123;28;20119;-72
2021/03/01 00:24:07;;;;;;;18.55;7.60;;;0.30;99.90;;;;;;5022000;28;20068;-72
2021/03/01 00:26:51;;;;;;;17.20;8.15;;;0.30;99.90;;;;;;5017343;28;20099;-71
2021/03/01 00:29:35;;;;;;;19.25;8.23;;;0.30;99.90;;;;;;5014924;28;20044;-71
2021/03/01 00:32:19;;;;;;;18.88;7.85;;;0.30;99.90;;;;;;5021546;28;20164;-72
2021/03/01 00:35:06;;;;;;;18.52;7.82;;;0.40;99.90;;;;;;5015823;28;20145;-72
2021/03/01 00:37:50;;;;;;;19.67;7.70;;;0.40;99.90;;;;;;5019032;28;20053;-72
2021/03/01 00:40:35;;;;;;;19.73;7.65;;;0.50;99.90;;;;;;5016465;28;20044;-71
2021/03/01 00:43:19;;;;;;;19.92;7.57;;;0.60;99.90;;;;;;5013869;28;20051;-71
2021/03/01 00:46:03;;;;;;;19.85;7.97;;;0.50;99.90;;;;;;5023624;28;20048;-71
2021/03/01 00:48:47;;;;;;;19.42;8.32;;;0.40;99.90;;;;;;5022959;28;20115;-72
2021/03/01 00:51:32;;;;;;;21.58;7.75;;;0.70;99.90;;;;;;5024382;28;20039;-72
2021/03/01 00:54:16;;;;;;;20.30;8.07;;;0.70;99.90;;;;;;5019674;28;20191;-72
2021/03/01 00:57:01;;;;;;;20.20;8.13;;;0.60;99.90;;;;;;5024520;28;20049;-71
2021/03/01 00:59:45;;;;;;;19.92;8.18;;;0.60;99.90;;;;;;5019295;28;20124;-71
2021/03/01 01:02:29;;;;;;;18.48;8.25;;;0.50;99.90;;;;;;5016688;28;20063;-71
2021/03/01 01:05:14;;;;;;;20.33;7.97;;;0.50;99.90;;;;;;5021776;28;20048;-72
2021/03/01 01:07:58;;;;;;;22.77;8.70;;;0.50;99.90;;;;;;5019012;28;20049;-71
2021/03/01 01:10:42;;;;;;;20.52;8.48;;;0.50;99.90;;;;;;5017401;28;20049;-72
2021/03/01 01:13:26;;;;;;;22.23;9.10;;;0.50;99.90;;;;;;5016849;28;20399;-72
2021/03/01 01:16:11;;;;;;;19.05;8.40;;;0.50;99.90;;;;;;5020342;28;20049;-72
2021/03/01 01:18:55;;;;;;;17.30;7.90;;;0.50;99.90;;;;;;5023093;28;20044;-72
2021/03/01 01:21:39;;;;;;;22.00;8.88;;;0.50;99.90;;;;;;5023221;28;20040;-71
2021/03/01 01:24:23;;;;;;;18.65;8.57;;;0.50;99.90;;;;;;5023740;28;20053;-72
2021/03/01 01:27:07;;;;;;;20.50;8.80;;;0.60;99.90;;;;;;5026687;28;20124;-72
2021/03/01 01:29:51;;;;;;;18.90;8.32;;;0.70;99.90;;;;;;5018238;28;20045;-71
2021/03/01 01:32:36;;;;;;;19.45;8.50;;;0.70;99.90;;;;;;5013903;28;20049;-71
2021/03/01 01:35:21;;;;;;;21.80;8.57;;;0.80;99.90;;;;;;5020469;28;20087;-72
2021/03/01 01:38:05;;;;;;;20.77;9.25;;;1.00;99.90;;;;;;5019998;28;20429;-71
2021/03/01 01:40:49;;;;;;;16.95;7.53;;;1.20;99.90;;;;;;5027535;28;20040;-72
2021/03/01 01:43:34;;;;;;;22.58;8.55;;;1.30;99.90;;;;;;5019676;28;20077;-72
2021/03/01 01:46:19;;;;;;;18.13;7.82;;;1.70;99.90;;;;;;5017281;28;20048;-72
2021/03/01 01:49:03;;;;;;;20.25;8.75;;;1.80;99.90;;;;;;5018701;28;20163;-72
2021/03/01 01:51:47;;;;;;;22.10;9.23;;;1.70;99.90;;;;;;5026643;28;20085;-72
2021/03/01 01:54:32;;;;;;;19.83;8.73;;;1.80;99.90;;;;;;5025633;28;20098;-72
2021/03/01 01:57:17;;;;;;;22.98;9.85;;;2.00;99.90;;;;;;5021135;28;20124;-72
2021/03/01 02:00:06;;;;;;;17.95;8.27;;;2.20;99.90;;;;;;5021682;28;20047;-72
2021/03/01 02:02:58;;;;;;;17.65;8.82;;;2.40;99.90;;;;;;5021772;28;20143;-72
2021/03/01 02:05:43;;;;;;;17.63;8.18;;;2.60;99.90;;;;;;5014304;28;20040;-71
2021/03/01 02:08:37;;;;;;;20.98;9.00;;;2.70;99.90;;;;;;5017146;28;20446;-72
2021/03/01 02:11:43;;;;;;;15.55;8.23;;;2.80;99.90;;;;;;5012501;28;20081;-72
2021/03/01 02:15:02;;;;;;;22.33;9.20;;;2.70;99.90;;;;;;5022886;28;20040;-71
2021/03/01 02:17:47;;;;;;;17.85;9.43;;;2.60;99.90;;;;;;5014539;28;20056;-71
2021/03/01 02:20:31;;;;;;;22.35;9.50;;;2.50;99.90;;;;;;5013577;28;20049;-71
2021/03/01 02:23:16;;;;;;;17.23;8.60;;;2.60;99.90;;;;;;5017256;28;20525;-72
2021/03/01 02:26:05;;;;;;;20.65;9.50;;;2.50;99.90;;;;;;5019701;28;20045;-71
2021/03/01 02:28:53;;;;;;;20.60;9.73;;;2.50;99.90;;;;;;5015356;28;20556;-71
2021/03/01 02:31:43;;;;;;;20.50;9.38;;;2.60;99.90;;;;;;5015838;28;20053;-72
2021/03/01 02:34:33;;;;;;;25.75;9.75;;;2.50;99.90;;;;;;5013497;28;20098;-72
2021/03/01 02:37:22;;;;;;;20.83;9.43;;;2.70;99.90;;;;;;5022317;28;20124;-72
2021/03/01 02:40:09;;;;;;;22.52;9.88;;;2.80;99.90;;;;;;5021864;28;20045;-72
2021/03/01 02:42:54;;;;;;;17.38;9.07;;;2.90;99.90;;;;;;5024878;28;20517;-72
2021/03/01 02:45:42;;;;;;;15.55;8.48;;;3.00;99.90;;;;;;5013699;28;20413;-71
2021/03/01 02:48:28;;;;;;;20.75;8.68;;;3.10;99.90;;;;;;5024611;28;20045;-71
2021/03/01 02:51:14;;;;;;;18.70;8.60;;;3.20;99.90;;;;;;5019576;28;20456;-71
2021/03/01 02:54:01;;;;;;;18.55;8.70;;;3.20;99.90;;;;;;5010588;28;20053;-72
2021/03/01 02:56:50;;;;;;;16.92;8.45;;;3.20;99.90;;;;;;5026286;28;20467;-71
2021/03/01 02:59:35;;;;;;;16.17;8.30;;;3.20;99.90;;;;;;5021337;28;20084;-71
2021/03/01 03:02:22;;;;;;;21.10;9.95;;;3.20;99.90;;;;;;5019520;28;20048;-71
2021/03/01 03:05:09;;;;;;;21.88;8.38;;;3.10;99.90;;;;;;5033385;28;20041;-72
2021/03/01 03:07:54;;;;;;;18.08;8.95;;;3.10;99.90;;;;;;5017726;28;20374;-71
2021/03/01 03:10:39;;;;;;;16.27;8.25;;;3.00;99.90;;;;;;5020166;28;20153;-72
2021/03/01 03:13:25;;;;;;;18.80;9.55;;;2.90;99.90;;;;;;5019919;28;20047;-71
2021/03/01 03:16:10;;;;;;;18.40;9.80;;;2.80;99.90;;;;;;5023101;28;20107;-72
2021/03/01 03:18:56;;;;;;;21.60;9.65;;;2.90;99.90;;;;;;5020276;28;20458;-72
2021/03/01 03:21:40;;;;;;;19.60;9.18;;;2.70;99.90;;;;;;5015621;28;20089;-71
2021/03/01 03:24:25;;;;;;;19.40;9.73;;;2.60;99.90;;;;;;5022593;28;20055;-72
2021/03/01 03:27:09;;;;;;;21.30;10.10;;;2.60;99.90;;;;;;5014721;28;20048;-72
2021/03/01 03:29:53;;;;;;;19.50;9.32;;;2.50;99.90;;;;;;5018286;28;20598;-71
2021/03/01 03:32:37;;;;;;;20.67;10.02;;;2.50;99.90;;;;;;5024330;28;20068;-72
2021/03/01 03:35:22;;;;;;;19.77;9.05;;;2.60;99.90;;;;;;5015260;28;20112;-72
2021/03/01 03:38:31;;;;;;;21.17;9.52;;;2.60;99.90;;;;;;5016443;28;20100;-71
2021/03/01 03:41:16;;;;;;;23.10;11.07;;;2.50;99.90;;;;;;5023993;28;20064;-72
2021/03/01 03:44:02;;;;;;;21.92;10.40;;;2.50;99.90;;;;;;5006875;28;20110;-72
2021/03/01 03:46:46;;;;;;;22.33;11.18;;;2.40;99.90;;;;;;5023863;28;20133;-72
2021/03/01 03:49:32;;;;;;;22.27;10.27;;;2.30;99.90;;;;;;5017566;28;20100;-71
2021/03/01 03:52:20;;;;;;;20.50;10.00;;;2.30;99.90;;;;;;5014118;28;20056;-71
2021/03/01 03:55:09;;;;;;;19.10;9.77;;;2.30;99.90;;;;;;5012709;28;20053;-71
2021/03/01 03:58:06;;;;;;;20.73;9.50;;;2.20;99.90;;;;;;5021926;28;20067;-71
2021/03/01 04:00:52;;;;;;;20.52;9.65;;;2.20;99.90;;;;;;5019042;28;20132;-72
2021/03/01 04:03:37;;;;;;;20.55;10.70;;;2.20;99.90;;;;;;5022429;28;20148;-72
2021/03/01 04:06:23;;;;;;;21.58;10.27;;;2.20;99.90;;;;;;5016779;28;20435;-72
2021/03/01 04:09:10;;;;;;;22.88;11.13;;;2.20;99.90;;;;;;5014644;28;20051;-72
2021/03/01 04:11:55;;;;;;;22.02;10.55;;;2.20;99.90;;;;;;5017436;28;20056;-71
2021/03/01 04:14:41;;;;;;;20.83;10.35;;;2.30;99.90;;;;;;5021594;28;20092;-72
2021/03/01 04:17:27;;;;;;;21.95;10.65;;;2.30;99.90;;;;;;5013985;28;20060;-72
2021/03/01 04:20:13;;;;;;;20.98;10.93;;;2.20;99.90;;;;;;5014209;28;20061;-72
2021/03/01 04:22:59;;;;;;;26.67;11.43;;;2.20;99.90;;;;;;5010066;28;20135;-72
2021/03/01 04:25:45;;;;;;;22.17;11.05;;;2.10;99.90;;;;;;5015924;28;20045;-71
2021/03/01 04:28:31;;;;;;;23.30;10.55;;;2.10;99.90;;;;;;5021477;28;20048;-72
2021/03/01 04:31:16;;;;;;;23.83;11.25;;;2.00;99.90;;;;;;5014356;28;20129;-72
2021/03/01 04:34:04;;;;;;;21.48;9.52;;;2.00;99.90;;;;;;5023320;28;20056;-72
2021/03/01 04:36:48;;;;;;;22.55;11.40;;;1.90;99.90;;;;;;5020084;28;20514;-71
2021/03/01 04:39:33;;;;;;;20.98;10.82;;;1.90;99.90;;;;;;5015888;28;20135;-71
2021/03/01 04:42:18;;;;;;;24.08;11.35;;;1.80;99.90;;;;;;5015544;28;20064;-71
2021/03/01 04:45:04;;;;;;;25.60;11.60;;;1.70;99.90;;;;;;5002851;28;20497;-71
2021/03/01 04:47:50;;;;;;;24.00;11.82;;;1.70;99.90;;;;;;5024799;28;20087;-71
2021/03/01 04:50:34;;;;;;;24.42;11.48;;;1.70;99.90;;;;;;5017590;28;20048;-72
2021/03/01 04:53:20;;;;;;;23.60;10.48;;;1.70;99.90;;;;;;5015346;28;20147;-72
2021/03/01 04:56:07;;;;;;;23.38;11.13;;;1.70;99.90;;;;;;5021173;28;20517;-71
2021/03/01 04:58:53;;;;;;;26.33;11.52;;;1.70;99.90;;;;;;5017111;28;20182;-71
2021/03/01 05:01:37;;;;;;;22.75;11.48;;;1.50;99.90;;;;;;5014643;28;20092;-72
2021/03/01 05:04:22;;;;;;;25.13;11.85;;;1.50;99.90;;;;;;5023325;28;20506;-72
2021/03/01 05:07:08;;;;;;;27.52;12.55;;;1.40;99.90;;;;;;5020221;28;20044;-72
2021/03/01 05:09:52;;;;;;;25.15;11.70;;;1.30;99.90;;;;;;5018414;28;20157;-71
2021/03/01 05:12:37;;;;;;;27.42;12.60;;;1.20;99.90;;;;;;5011917;28;20072;-71
2021/03/01 05:15:21;;;;;;;21.83;10.10;;;1.20;99.90;;;;;;5019951;28;20554;-72
2021/03/01 05:18:05;;;;;;;21.95;11.13;;;1.20;99.90;;;;;;5019496;28;20056;-71
2021/03/01 05:20:49;;;;;;;19.02;9.93;;;1.10;99.90;;;;;;5018519;28;20052;-72
2021/03/01 05:23:34;;;;;;;20.73;10.40;;;1.10;99.90;;;;;;5016760;28;20076;-72
2021/03/01 05:26:19;;;;;;;22.33;10.70;;;1.00;99.90;;;;;;5018279;28;20520;-72
2021/03/01 05:29:04;;;;;;;24.50;10.27;;;1.00;99.90;;;;;;5017751;28;20044;-72
2021/03/01 05:31:48;;;;;;;21.25;10.85;;;0.90;99.90;;;;;;5017535;28;20386;-72
2021/03/01 05:34:32;;;;;;;26.92;12.40;;;0.90;99.90;;;;;;5018004;28;20430;-72
2021/03/01 05:37:16;;;;;;;22.75;10.70;;;0.90;99.90;;;;;;5022002;28;20528;-72
2021/03/01 05:40:00;;;;;;;24.08;10.85;;;0.90;99.90;;;;;;5024024;28;20096;-72
2021/03/01 05:42:48;;;;;;;22.50;10.73;;;0.90;99.90;;;;;;5015574;28;20091;-72
2021/03/01 05:45:33;;;;;;;25.88;10.73;;;0.80;99.90;;;;;;5011116;28;20095;-72
2021/03/01 05:48:20;;;;;;;22.05;9.80;;;0.80;99.90;;;;;;5015485;28;20045;-72
2021/03/01 05:51:04;;;;;;;24.70;12.05;;;0.80;99.90;;;;;;5019702;28;20088;-72
2021/03/01 05:53:52;;;;;;;24.30;11.32;;;0.80;99.90;;;;;;5025066;28;20047;-72
2021/03/01 05:56:38;;;;;;;24.85;12.38;;;0.80;99.90;;;;;;5016742;28;20450;-72
2021/03/01 05:59:23;;;;;;;23.88;11.38;;;0.70;99.90;;;;;;5021552;28;20079;-72
2021/03/01 06:02:08;;;;;;;28.95;12.65;;;0.60;99.90;;;;;;5021777;28;20049;-72
2021/03/01 06:04:53;;;;;;;27.70;11.48;;;0.50;99.90;;;;;;5029246;28;20061;-72
2021/03/01 06:07:38;;;;;;;24.33;11.57;;;0.40;99.90;;;;;;5022244;28;20056;-72
2021/03/01 06:10:23;;;;;;;23.08;11.60;;;0.50;99.90;;;;;;5014433;28;20098;-72
2021/03/01 06:13:08;;;;;;;24.63;12.40;;;0.60;99.90;;;;;;5017247;28;20133;-71
2021/03/01 06:15:54;;;;;;;25.70;12.00;;;0.60;99.90;;;;;;5019902;28;20063;-72
2021/03/01 06:18:46;;;;;;;22.45;11.57;;;0.70;99.90;;;;;;5019553;28;20049;-72
2021/03/01 06:21:32;;;;;;;24.58;12.32;;;0.70;99.90;;;;;;5014748;28;20094;-71
2021/03/01 06:24:16;;;;;;;24.67;11.40;;;0.70;99.90;;;;;;5019177;28;20126;-72
2021/03/01 06:27:01;;;;;;;25.42;11.40;;;0.70;99.90;;;;;;5012998;28;20060;-72
2021/03/01 06:30:08;;;;;;;26.27;11.90;;;0.70;99.90;;;;;;5021613;28;20118;-72
2021/03/01 06:33:12;;;;;;;24.48;11.80;;;0.80;99.90;;;;;;5020861;28;20044;-72
2021/03/01 06:35:56;;;;;;;28.17;12.13;;;0.90;99.90;;;;;;5022942;28;20079;-72
2021/03/01 06:38:42;;;;;;;23.83;10.98;;;1.00;99.90;;;;;;5022734;28;20123;-72
2021/03/01 06:41:26;;;;;;;25.70;11.27;;;1.10;99.90;;;;;;5017699;28;20053;-72
2021/03/01 06:44:10;;;;;;;24.98;11.95;;;1.20;99.90;;;;;;5021108;28;20056;-72
2021/03/01 06:46:54;;;;;;;27.88;12.00;;;1.20;99.90;;;;;;5032729;28;20406;-72
2021/03/01 06:49:42;;;;;;;26.70;11.13;;;1.30;99.90;;;;;;5020118;28;20075;-72
2021/03/01 06:52:36;;;;;;;23.38;12.02;;;1.30;99.90;;;;;;5015274;28;20096;-72
2021/03/01 06:55:21;;;;;;;26.65;11.98;;;1.50;99.90;;;;;;5023342;28;20147;-72
2021/03/01 06:58:17;;;;;;;29.45;12.27;;;1.40;99.90;;;;;;5018549;28;20057;-72
2021/03/01 07:01:05;;;;;;;23.60;12.52;;;1.40;99.90;;;;;;5021014;28;20567;-72
2021/03/01 07:03:51;;;;;;;24.92;12.00;;;1.40;99.90;;;;;;5018189;28;20049;-71
2021/03/01 07:06:35;;;;;;;22.48;11.20;;;1.40;99.90;;;;;;5023602;28;20203;-72
2021/03/01 07:09:24;;;;;;;23.95;11.43;;;1.40;99.90;;;;;;5024223;28;20424;-72
2021/03/01 07:12:10;;;;;;;22.58;11.68;;;1.50;99.90;;;;;;5022676;28;20084;-71
2021/03/01 07:14:54;;;;;;;24.98;11.93;;;1.50;99.90;;;;;;5020233;28;20125;-71
2021/03/01 07:17:41;;;;;;;23.25;11.23;;;1.50;99.90;;;;;;5020536;28;20040;-71
2021/03/01 07:20:26;;;;;;;22.60;11.05;;;1.60;99.90;;;;;;5010687;28;20061;-71
2021/03/01 07:23:10;;;;;;;23.20;11.48;;;1.60;99.90;;;;;;5012123;28;20082;-69
2021/03/01 07:25:56;;;;;;;22.15;11.13;;;1.60;99.90;;;;;;5015728;28;20060;-72
2021/03/01 07:28:43;;;;;;;23.52;11.15;;;1.70;99.90;;;;;;5020963;28;20551;-71
2021/03/01 07:31:27;;;;;;;23.90;11.65;;;1.70;99.90;;;;;;5020584;28;20433;-72
2021/03/01 07:34:12;;;;;;;24.00;13.05;;;1.80;99.90;;;;;;5015354;28;20182;-72
2021/03/01 07:37:00;;;;;;;23.13;11.60;;;1.90;99.90;;;;;;5017063;28;20510;-72
2021/03/01 07:39:44;;;;;;;25.27;12.48;;;1.90;99.90;;;;;;5015287;28;20841;-72
2021/03/01 07:42:30;;;;;;;25.00;11.15;;;2.00;99.90;;;;;;5013851;28;20458;-71
2021/03/01 07:45:14;;;;;;;23.98;11.50;;;2.00;99.90;;;;;;5016595;28;20044;-72
2021/03/01 07:48:10;;;;;;;26.13;11.77;;;2.00;99.90;;;;;;5015552;28;20060;-72
2021/03/01 07:50:54;;;;;;;21.20;10.52;;;2.10;99.90;;;;;;5013217;28;20088;-72
2021/03/01 07:53:45;;;;;;;25.20;11.25;;;2.30;99.90;;;;;;5013956;28;20123;-72
2021/03/01 07:56:49;;;;;;;20.95;11.35;;;2.90;99.90;;;;;;5019310;28;20053;-72
2021/03/01 07:59:33;;;;;;;;;;;3.40;99.90;;;;;;5012605;28;20060;-72
2021/03/01 08:02:31;;;;;;;19.45;10.88;;;3.60;99.90;;;;;;5025984;28;19928;-71
2021/03/01 08:05:20;;;;;;;20.15;10.88;;;3.90;99.90;;;;;;5027832;28;20109;-72
2021/03/01 08:08:05;;;;;;;19.63;11.55;;;4.00;99.90;;;;;;5020503;28;20091;-72
2021/03/01 08:10:49;;;;;;;17.85;10.52;;;4.30;99.90;;;;;;5028081;28;20048;-71
2021/03/01 08:13:33;;;;;;;19.90;11.05;;;4.50;99.90;;;;;;5008899;28;20049;-72
2021/03/01 08:16:23;;;;;;;17.67;10.48;;;4.80;99.90;;;;;;5014642;28;20125;-72
2021/03/01 08:19:08;;;;;;;18.30;10.85;;;4.80;99.90;;;;;;5017864;28;20088;-71
2021/03/01 08:22:05;;;;;;;19.50;10.57;;;5.20;99.90;;;;;;5019272;28;20465;-70
2021/03/01 08:24:51;;;;;;;19.15;10.82;;;5.50;99.90;;;;;;5013958;28;20045;-69
2021/03/01 08:27:39;;;;;;;18.75;9.95;;;5.80;99.90;;;;;;5028475;28;20203;-70
2021/03/01 08:30:32;;;;;;;18.33;11.02;;;5.90;99.90;;;;;;5026783;28;20147;-70
2021/03/01 08:33:16;;;;;;;21.00;11.90;;;6.20;99.90;;;;;;5015679;28;20068;-70
2021/03/01 08:36:00;;;;;;;17.10;11.07;;;6.00;99.90;;;;;;5024869;28;20423;-70
2021/03/01 08:38:45;;;;;;;17.63;11.55;;;6.20;99.90;;;;;;5020465;28;20110;-70
2021/03/01 08:41:33;;;;;;;17.23;10.57;;;5.90;99.90;;;;;;5012899;28;20139;-71
2021/03/01 08:44:19;;;;;;;17.08;10.45;;;6.30;99.90;;;;;;5026373;28;20048;-71
2021/03/01 08:47:03;;;;;;;18.08;11.50;;;6.40;99.90;;;;;;5025308;28;20051;-70
2021/03/01 08:49:48;;;;;;;18.48;10.75;;;6.40;99.90;;;;;;5016113;28;20056;-70
2021/03/01 08:52:32;;;;;;;18.20;10.45;;;6.70;99.90;;;;;;5010315;28;20103;-70
2021/03/01 08:55:18;;;;;;;15.52;10.10;;;7.50;99.90;;;;;;5015230;28;20053;-70
2021/03/01 08:58:04;;;;;;;16.73;10.20;;;7.80;99.90;;;;;;5026536;28;20076;-70
2021/03/01 09:00:51;;;;;;;16.13;9.73;;;8.60;99.90;;;;;;5023401;28;20037;-71
2021/03/01 09:03:37;;;;;;;16.83;10.05;;;8.70;99.90;;;;;;5025077;28;20099;-71
2021/03/01 09:06:22;;;;;;;17.05;10.27;;;9.00;99.90;;;;;;5012026;28;20518;-70
2021/03/01 09:09:08;;;;;;;15.50;9.93;;;8.70;99.90;;;;;;5015709;28;20129;-71
2021/03/01 09:11:52;;;;;;;16.88;10.73;;;9.20;99.90;;;;;;5018253;28;20187;-70
2021/03/01 09:14:38;;;;;;;16.88;10.65;;;8.60;99.90;;;;;;5016490;28;20107;-70
2021/03/01 09:17:24;;;;;;;14.27;9.88;;;8.30;99.90;;;;;;5011412;28;20056;-70
2021/03/01 09:20:09;;;;;;;16.80;10.82;;;7.70;99.90;;;;;;5010754;28;20045;-70
2021/03/01 09:22:53;;;;;;;15.63;10.60;;;7.10;99.90;;;;;;4994713;28;20156;-69
2021/03/01 09:25:38;;;;;;;17.17;11.18;;;6.60;99.90;;;;;;5014681;28;20088;-70
2021/03/01 09:28:32;;;;;;;18.10;11.00;;;6.50;99.90;;;;;;5023994;28;20064;-69
2021/03/01 09:31:17;;;;;;;20.17;11.23;;;6.60;99.90;;;;;;5026184;28;20071;-69
2021/03/01 09:34:01;;;;;;;17.83;11.10;;;6.60;99.90;;;;;;5019952;28;20135;-70
2021/03/01 09:36:50;;;;;;;22.60;10.82;;;6.50;99.90;;;;;;5020435;28;20498;-69
2021/03/01 09:39:38;;;;;;;19.88;10.80;;;6.50;99.90;;;;;;5032309;28;20043;-69
2021/03/01 09:42:22;;;;;;;18.30;10.57;;;6.60;99.90;;;;;;5021020;28;20040;-69
2021/03/01 09:45:06;;;;;;;21.65;10.70;;;6.50;99.90;;;;;;5022997;28;20130;-71
2021/03/01 09:47:51;;;;;;;20.92;10.55;;;6.50;99.90;;;;;;5019259;28;20056;-71
2021/03/01 09:50:38;;;;;;;21.33;11.07;;;6.60;99.90;;;;;;5023006;28;20152;-72
2021/03/01 09:53:24;;;;;;;21.50;12.02;;;6.60;99.90;;;;;;5013393;28;20049;-71
2021/03/01 09:56:08;;;;;;;17.67;10.23;;;6.80;99.90;;;;;;5030412;28;20047;-72
2021/03/01 09:58:53;;;;;;;22.70;10.57;;;7.00;99.90;;;;;;5014316;28;20037;-71
2021/03/01 10:01:37;;;;;;;19.77;10.90;;;7.00;99.90;;;;;;5014658;28;20041;-69
2021/03/01 10:04:24;;;;;;;18.60;10.77;;;7.00;99.90;;;;;;5014913;28;20052;-71
2021/03/01 10:07:19;;;;;;;17.92;10.07;;;7.10;99.90;;;;;;5018787;28;20408;-71
2021/03/01 10:10:14;;;;;;;16.88;9.63;;;7.20;99.90;;;;;;5020040;28;20060;-72
2021/03/01 10:12:59;;;;;;;18.67;9.57;;;7.20;99.90;;;;;;5008646;28;20104;-71
2021/03/01 10:15:45;;;;;;;16.73;9.90;;;7.30;99.90;;;;;;5015257;28;20053;-72
2021/03/01 10:18:32;;;;;;;17.30;9.68;;;7.40;99.90;;;;;;5015936;28;20399;-71
2021/03/01 10:21:16;;;;;;;19.08;9.23;;;7.50;99.90;;;;;;5017547;28;20073;-72
2021/03/01 10:24:04;;;;;;;16.50;9.77;;;7.60;99.90;;;;;;5003135;28;20104;-71
2021/03/01 10:27:04;;;;;;;16.85;9.07;;;7.60;99.90;;;;;;5016925;28;20044;-70
2021/03/01 10:29:49;;;;;;;16.88;9.40;;;7.80;99.90;;;;;;5016729;28;20052;-71
2021/03/01 10:32:33;;;;;;;16.55;9.23;;;7.90;99.90;;;;;;5014791;28;20245;-71
2021/03/01 10:35:18;;;;;;;13.15;8.20;;;7.80;99.90;;;;;;5024763;28;20118;-71
2021/03/01 10:38:06;;;;;;;11.70;7.63;;;7.90;99.90;;;;;;5019054;28;20057;-69
2021/03/01 10:40:50;;;;;;;17.52;8.68;;;7.90;99.90;;;;;;5008497;28;20510;-69
2021/03/01 10:43:34;;;;;;;15.75;8.73;;;8.00;99.90;;;;;;5019204;28;20064;-69
2021/03/01 10:46:42;;;;;;;12.57;8.57;;;8.20;99.90;;;;;;5019709;28;20096;-71
2021/03/01 10:49:29;;;;;;;13.15;8.30;;;8.30;99.90;;;;;;5017028;28;20048;-70
2021/03/01 10:52:15;;;;;;;17.60;8.77;;;8.40;99.90;;;;;;5021286;28;20053;-70
2021/03/01 10:55:01;;;;;;;15.27;8.10;;;8.40;99.90;;;;;;5015408;28;20465;-70
2021/03/01 10:57:46;;;;;;;14.15;8.57;;;8.50;99.90;;;;;;5019020;28;20048;-71
2021/03/01 11:00:29;;;;;;;14.55;8.27;;;8.60;99.90;;;;;;5017585;28;20044;-71
2021/03/01 11:03:14;;;;;;;14.07;8.10;;;8.70;99.90;;;;;;5008056;28;20049;-71
2021/03/01 11:05:58;;;;;;;13.40;7.57;;;8.80;99.90;;;;;;5019553;28;20044;-70
2021/03/01 11:08:43;;;;;;;13.75;7.63;;;9.00;99.90;;;;;;5008151;28;20064;-70
2021/03/01 11:11:27;;;;;;;13.68;7.53;;;9.00;99.90;;;;;;5008915;28;20143;-71
2021/03/01 11:14:14;;;;;;;12.68;7.68;;;9.30;99.90;;;;;;5010893;28;20048;-71
2021/03/01 11:16:58;;;;;;;13.10;7.38;;;9.40;99.90;;;;;;5025630;28;20099;-70
2021/03/01 11:19:42;;;;;;;11.38;6.93;;;9.50;99.90;;;;;;5023461;28;20076;-71
2021/03/01 11:22:27;;;;;;;13.80;7.03;;;9.70;99.90;;;;;;5013666;28;20104;-70
2021/03/01 11:25:11;;;;;;;10.32;6.38;;;9.70;99.90;;;;;;5011758;28;20228;-70
2021/03/01 11:27:56;;;;;;;11.52;6.57;;;9.90;99.90;;;;;;5013136;28;20518;-71
2021/03/01 11:30:40;;;;;;;9.63;5.82;;;10.00;99.90;;;;;;5028305;28;20053;-70
2021/03/01 11:33:25;;;;;;;11.02;6.70;;;10.10;99.90;;;;;;5026892;28;20091;-71
2021/03/01 11:36:10;;;;;;;12.38;5.65;;;10.40;99.90;;;;;;5024932;28;20131;-71
2021/03/01 11:38:54;;;;;;;8.60;4.68;;;10.40;98.60;;;;;;5015654;28;20192;-70
2021/03/01 11:41:38;;;;;;;8.40;4.57;;;10.50;95.10;;;;;;5018535;28;20045;-70
2021/03/01 11:44:23;;;;;;;10.82;4.28;;;10.60;96.20;;;;;;5015197;28;20066;-71
2021/03/01 11:47:07;;;;;;;5.97;3.10;;;10.80;96.90;;;;;;5019073;28;20071;-71
2021/03/01 11:49:51;;;;;;;5.10;2.22;;;10.80;78.60;;;;;;5016487;28;20052;-70
2021/03/01 11:52:35;;;;;;;2.85;1.58;;;10.90;76.00;;;;;;5018586;28;20095;-71
2021/03/01 11:55:19;;;;;;;5.05;1.80;;;11.00;67.70;;;;;;5015891;28;20208;-70
2021/03/01 11:58:04;;;;;;;2.33;1.55;;;11.10;62.80;;;;;;5014596;28;20040;-70
2021/03/01 12:00:48;;;;;;;4.68;1.30;;;11.20;62.40;;;;;;5023975;28;20116;-70
2021/03/01 12:03:34;;;;;;;4.82;1.30;;;11.30;54.40;;;;;;5018646;28;20131;-70
2021/03/01 12:06:19;;;;;;;3.50;1.10;;;11.40;54.50;;;;;;5014619;28;20055;-70
2021/03/01 12:09:03;;;;;;;2.95;1.40;;;11.50;52.30;;;;;;5015001;28;20509;-70
2021/03/01 12:11:48;;;;;;;3.22;1.33;;;11.60;50.90;;;;;;5020122;28;20099;-69
2021/03/01 12:14:32;;;;;;;2.25;1.00;;;11.60;49.10;;;;;;5019342;28;20107;-70
2021/03/01 12:17:16;;;;;;;3.38;1.15;;;11.60;49.50;;;;;;5022398;28;20040;-70
2021/03/01 12:20:00;;;;;;;2.70;0.93;;;11.80;49.50;;;;;;5029125;28;20147;-70
2021/03/01 12:22:44;;;;;;;4.78;1.48;;;11.70;47.10;;;;;;5030666;28;20079;-70
2021/03/01 12:25:28;;;;;;;3.28;0.98;;;11.80;46.90;;;;;;5025303;28;20049;-70
2021/03/01 12:28:13;;;;;;;2.80;1.10;;;11.90;44.90;;;;;;5017224;28;20215;-70
2021/03/01 12:30:57;;;;;;;2.60;1.00;;;11.90;45.70;;;;;;5022540;28;20041;-70
2021/03/01 12:33:41;;;;;;;1.60;0.80;;;12.00;44.00;;;;;;5013682;28;20562;-70
2021/03/01 12:36:25;;;;;;;2.22;1.00;;;12.00;44.30;;;;;;5021968;28;20549;-70
2021/03/01 12:39:09;;;;;;;2.75;1.27;;;12.10;43.40;;;;;;5020123;28;20057;-70
2021/03/01 12:41:53;;;;;;;2.72;0.95;;;12.30;45.30;;;;;;5012391;28;20060;-70
2021/03/01 12:44:38;;;;;;;2.17;0.85;;;12.40;43.90;;;;;;5024461;28;20055;-70
2021/03/01 12:47:22;;;;;;;4.00;1.13;;;12.50;43.40;;;;;;5025292;28;20052;-70
2021/03/01 12:50:08;;;;;;;2.88;1.40;;;12.40;42.00;;;;;;5016234;28;20103;-70
2021/03/01 12:52:53;;;;;;;3.15;1.30;;;12.50;43.50;;;;;;5014862;28;20465;-70
2021/03/01 12:55:37;;;;;;;4.18;1.30;;;12.60;42.90;;;;;;5026378;28;20088;-70
2021/03/01 12:58:21;;;;;;;2.17;1.30;;;12.70;42.20;;;;;;5016935;28;20446;-70
2021/03/01 13:01:05;;;;;;;3.13;1.40;;;12.90;43.20;;;;;;5013726;28;20417;-70
2021/03/01 13:03:50;;;;;;;3.72;1.50;;;13.10;41.70;;;;;;5024245;28;20080;-70
2021/03/01 13:06:34;;;;;;;2.33;1.30;;;13.10;42.20;;;;;;5017860;28;20522;-71
2021/03/01 13:09:18;;;;;;;3.40;1.77;;;13.10;43.20;;;;;;5015486;28;20551;-70
2021/03/01 13:12:02;;;;;;;4.90;1.42;;;13.20;43.90;;;;;;5014646;28;20052;-70
2021/03/01 13:14:46;;;;;;;3.33;1.60;;;13.10;44.30;;;;;;5016889;28;20415;-70
2021/03/01 13:17:30;;;;;;;4.78;1.75;;;13.30;43.00;;;;;;5018737;28;20064;-70
2021/03/01 13:20:14;;;;;;;5.22;1.60;;;13.60;44.10;;;;;;5018362;28;20091;-71
2021/03/01 13:22:58;;;;;;;3.60;1.70;;;13.80;44.00;;;;;;5017740;28;20411;-70
2021/03/01 13:25:42;;;;;;;4.43;2.05;;;14.10;45.10;;;;;;5023808;28;20413;-72
2021/03/01 13:28:26;;;;;;;3.85;1.90;;;13.70;44.20;;;;;;5016760;28;20048;-72
2021/03/01 13:31:11;;;;;;;4.20;1.95;;;13.70;45.50;;;;;;5012641;28;20088;-71
2021/03/01 13:33:55;;;;;;;5.70;2.88;;;15.20;43.90;;;;;;5015453;28;20048;-71
2021/03/01 13:36:40;;;;;;;4.90;2.58;;;17.30;41.20;;;;;;5023034;28;20036;-72
2021/03/01 13:39:23;;;;;;;4.90;2.40;;;19.20;38.80;;;;;;5014166;28;20091;-71
2021/03/01 13:42:08;;;;;;;4.63;2.85;;;20.10;36.60;;;;;;5017880;28;20081;-71
2021/03/01 13:44:53;;;;;;;4.38;2.60;;;19.50;36.80;;;;;;5016425;28;20095;-71
2021/03/01 13:47:37;;;;;;;5.80;3.45;;;20.40;36.10;;;;;;5022852;28;20563;-69
2021/03/01 13:50:21;;;;;;;5.45;3.10;;;19.20;35.70;;;;;;5012159;28;20474;-69
2021/03/01 13:53:06;;;;;;;5.28;3.13;;;21.00;36.00;;;;;;5010145;28;20092;-71
2021/03/01 13:55:50;;;;;;;4.35;2.47;;;22.10;34.60;;;;;;5018883;28;20103;-69
2021/03/01 13:58:34;;;;;;;5.35;3.38;;;23.40;34.00;;;;;;5010704;28;20499;-70
2021/03/01 14:01:22;;;;;;;4.88;3.13;;;23.90;32.40;;;;;;5019813;28;20048;-70
2021/03/01 14:04:06;;;;;;;7.35;3.50;;;23.50;32.70;;;;;;5015710;28;20061;-70
2021/03/01 14:06:50;;;;;;;5.35;3.65;;;23.10;31.80;;;;;;5014033;28;20053;-70
2021/03/01 14:09:34;;;;;;;6.45;3.80;;;21.40;33.10;;;;;;5014860;28;20048;-70
2021/03/01 14:12:19;;;;;;;7.07;3.42;;;22.30;34.60;;;;;;5009779;28;20048;-70
2021/03/01 14:15:05;;;;;;;6.80;4.20;;;22.40;33.20;;;;;;5018761;28;20068;-70
2021/03/01 14:17:49;;;;;;;7.68;3.88;;;22.40;33.20;;;;;;5022505;28;20507;-70
2021/03/01 14:20:33;;;;;;;6.35;4.00;;;21.70;34.00;;;;;;5014916;28;20247;-70